sensor_id;sensor_type;location;lat;lon;timestamp;pressure;altitude;pressure_sealevel;temperature;humidity
70009;BME280;59542;37.950;-122.338;2023-02-20T00:00:28;101540.78;;;16.64;41.69
70009;BME280;59542;37.950;-122.338;2023-02-20T00:02:54;101548.59;;;16.54;41.20
70009;BME280;59542;37.950;-122.338;2023-02-20T00:05:20;101548.63;;;16.66;40.57
70009;BME280;59542;37.950;-122.338;2023-02-20T00:07:46;101549.56;;;16.78;39.97
70009;BME280;59542;37.950;-122.338;2023-02-20T00:10:12;101537.09;;;16.28;41.17
70009;BME280;59542;37.950;-122.338;2023-02-20T00:12:38;101544.00;;;16.24;41.67
70009;BME280;59542;37.950;-122.338;2023-02-20T00:15:04;101546.31;;;16.39;41.60
70009;BME280;59542;37.950;-122.338;2023-02-20T00:17:30;101531.75;;;16.40;41.98
70009;BME280;59542;37.950;-122.338;2023-02-20T00:19:56;101537.91;;;16.29;42.43
70009;BME280;59542;37.950;-122.338;2023-02-20T00:22:22;101531.84;;;16.33;43.99
70009;BME280;59542;37.950;-122.338;2023-02-20T00:24:48;101522.09;;;16.14;44.47
70009;BME280;59542;37.950;-122.338;2023-02-20T00:27:14;101524.56;;;16.16;44.95
70009;BME280;59542;37.950;-122.338;2023-02-20T00:29:40;101517.38;;;15.91;46.00
70009;BME280;59542;37.950;-122.338;2023-02-20T00:32:06;101525.34;;;15.61;46.36
70009;BME280;59542;37.950;-122.338;2023-02-20T00:34:31;101531.69;;;15.92;45.73
70009;BME280;59542;37.950;-122.338;2023-02-20T00:36:57;101526.06;;;15.93;45.82
70009;BME280;59542;37.950;-122.338;2023-02-20T00:39:23;101525.47;;;15.73;48.03
70009;BME280;59542;37.950;-122.338;2023-02-20T00:41:49;101535.38;;;15.79;48.19
70009;BME280;59542;37.950;-122.338;2023-02-20T00:44:15;101529.56;;;15.75;47.85
70009;BME280;59542;37.950;-122.338;2023-02-20T00:46:41;101532.81;;;15.66;47.37
70009;BME280;59542;37.950;-122.338;2023-02-20T00:49:07;101529.09;;;15.35;47.58
70009;BME280;59542;37.950;-122.338;2023-02-20T00:51:32;101536.81;;;15.56;47.07
70009;BME280;59542;37.950;-122.338;2023-02-20T00:54:00;101530.50;;;15.38;47.41
70009;BME280;59542;37.950;-122.338;2023-02-20T00:56:26;101530.31;;;15.39;46.30
70009;BME280;59542;37.950;-122.338;2023-02-20T00:58:52;101533.78;;;15.21;47.33
70009;BME280;59542;37.950;-122.338;2023-02-20T01:01:18;101534.88;;;15.14;48.51
70009;BME280;59542;37.950;-122.338;2023-02-20T01:03:44;101537.34;;;15.15;47.97
70009;BME280;59542;37.950;-122.338;2023-02-20T01:06:10;101535.88;;;15.19;48.63
70009;BME280;59542;37.950;-122.338;2023-02-20T01:08:36;101528.00;;;15.18;48.26
70009;BME280;59542;37.950;-122.338;2023-02-20T01:11:02;101530.66;;;14.93;48.82
70009;BME280;59542;37.950;-122.338;2023-02-20T01:13:27;101541.94;;;14.83;48.47
70009;BME280;59542;37.950;-122.338;2023-02-20T01:15:53;101536.63;;;14.70;48.62
70009;BME280;59542;37.950;-122.338;2023-02-20T01:18:19;101546.59;;;14.63;48.49
70009;BME280;59542;37.950;-122.338;2023-02-20T01:20:45;101547.34;;;14.76;48.72
70009;BME280;59542;37.950;-122.338;2023-02-20T01:23:11;101550.69;;;14.78;48.51
70009;BME280;59542;37.950;-122.338;2023-02-20T01:25:37;101548.56;;;14.81;47.95
70009;BME280;59542;37.950;-122.338;2023-02-20T01:28:03;101546.00;;;14.61;47.40
70009;BME280;59542;37.950;-122.338;2023-02-20T01:30:28;101554.78;;;14.36;46.93
70009;BME280;59542;37.950;-122.338;2023-02-20T01:32:54;101550.19;;;14.43;47.23
70009;BME280;59542;37.950;-122.338;2023-02-20T01:35:20;101555.88;;;14.22;49.09
70009;BME280;59542;37.950;-122.338;2023-02-20T01:37:46;101562.09;;;14.22;50.33
70009;BME280;59542;37.950;-122.338;2023-02-20T01:40:16;101549.94;;;14.00;50.79
70009;BME280;59542;37.950;-122.338;2023-02-20T01:42:42;101556.94;;;14.14;49.94
70009;BME280;59542;37.950;-122.338;2023-02-20T01:47:52;101563.19;;;14.02;49.86
70009;BME280;59542;37.950;-122.338;2023-02-20T01:50:19;101567.44;;;14.29;49.57
70009;BME280;59542;37.950;-122.338;2023-02-20T01:52:47;101579.38;;;13.68;53.12
70009;BME280;59542;37.950;-122.338;2023-02-20T01:55:25;101580.63;;;13.53;54.47
70009;BME280;59542;37.950;-122.338;2023-02-20T01:57:59;101589.31;;;13.55;55.40
70009;BME280;59542;37.950;-122.338;2023-02-20T02:00:25;101591.81;;;13.63;56.96
70009;BME280;59542;37.950;-122.338;2023-02-20T02:02:59;101589.53;;;13.46;59.31
70009;BME280;59542;37.950;-122.338;2023-02-20T02:05:27;101602.78;;;13.41;61.51
70009;BME280;59542;37.950;-122.338;2023-02-20T02:07:53;101600.09;;;13.35;62.85
70009;BME280;59542;37.950;-122.338;2023-02-20T02:10:22;101600.28;;;13.33;63.96
70009;BME280;59542;37.950;-122.338;2023-02-20T02:12:50;101603.38;;;13.30;64.80
70009;BME280;59542;37.950;-122.338;2023-02-20T02:15:18;101613.88;;;13.12;65.84
70009;BME280;59542;37.950;-122.338;2023-02-20T02:23:26;101621.66;;;12.87;67.76
70009;BME280;59542;37.950;-122.338;2023-02-20T02:26:03;101629.72;;;12.87;67.68
70009;BME280;59542;37.950;-122.338;2023-02-20T02:38:45;101642.75;;;12.42;71.20
70009;BME280;59542;37.950;-122.338;2023-02-20T02:46:33;101649.03;;;12.56;70.96
70009;BME280;59542;37.950;-122.338;2023-02-20T02:51:31;101657.56;;;12.73;70.43
70009;BME280;59542;37.950;-122.338;2023-02-20T02:54:09;101658.16;;;12.61;71.10
70009;BME280;59542;37.950;-122.338;2023-02-20T02:56:36;101665.72;;;12.51;71.05
70009;BME280;59542;37.950;-122.338;2023-02-20T02:59:02;101659.53;;;12.51;70.99
70009;BME280;59542;37.950;-122.338;2023-02-20T03:01:29;101660.53;;;12.15;72.15
70009;BME280;59542;37.950;-122.338;2023-02-20T03:03:57;101663.75;;;12.32;72.05
70009;BME280;59542;37.950;-122.338;2023-02-20T03:06:31;101662.09;;;12.31;71.94
70009;BME280;59542;37.950;-122.338;2023-02-20T03:09:03;101670.22;;;12.09;72.77
70009;BME280;59542;37.950;-122.338;2023-02-20T03:11:31;101667.09;;;12.06;72.57
70009;BME280;59542;37.950;-122.338;2023-02-20T03:14:05;101678.38;;;12.23;71.73
70009;BME280;59542;37.950;-122.338;2023-02-20T03:16:53;101671.41;;;12.35;70.37
70009;BME280;59542;37.950;-122.338;2023-02-20T03:19:26;101675.44;;;11.89;72.32
70009;BME280;59542;37.950;-122.338;2023-02-20T03:21:52;101672.66;;;12.04;71.85
70009;BME280;59542;37.950;-122.338;2023-02-20T03:24:20;101671.16;;;11.95;72.48
70009;BME280;59542;37.950;-122.338;2023-02-20T03:26:48;101669.13;;;12.04;71.65
70009;BME280;59542;37.950;-122.338;2023-02-20T03:29:18;101666.66;;;11.81;72.86
70009;BME280;59542;37.950;-122.338;2023-02-20T03:31:57;101677.38;;;11.81;73.34
70009;BME280;59542;37.950;-122.338;2023-02-20T03:34:43;101666.38;;;11.91;72.82
70009;BME280;59542;37.950;-122.338;2023-02-20T03:37:29;101659.94;;;11.85;73.18
70009;BME280;59542;37.950;-122.338;2023-02-20T03:40:14;101669.53;;;11.79;73.18
70009;BME280;59542;37.950;-122.338;2023-02-20T03:43:00;101675.00;;;11.86;73.67
70009;BME280;59542;37.950;-122.338;2023-02-20T03:45:45;101674.44;;;11.76;74.10
70009;BME280;59542;37.950;-122.338;2023-02-20T03:48:21;101663.31;;;11.72;74.18
70009;BME280;59542;37.950;-122.338;2023-02-20T03:50:50;101649.38;;;11.62;74.53
70009;BME280;59542;37.950;-122.338;2023-02-20T03:53:35;101654.56;;;11.42;75.44
70009;BME280;59542;37.950;-122.338;2023-02-20T03:56:02;101657.44;;;11.41;75.68
70009;BME280;59542;37.950;-122.338;2023-02-20T03:58:29;101657.44;;;11.41;75.53
70009;BME280;59542;37.950;-122.338;2023-02-20T04:00:58;101651.69;;;11.22;76.54
70009;BME280;59542;37.950;-122.338;2023-02-20T04:03:27;101653.34;;;11.23;76.53
70009;BME280;59542;37.950;-122.338;2023-02-20T04:05:56;101661.38;;;11.23;76.89
70009;BME280;59542;37.950;-122.338;2023-02-20T04:08:27;101656.91;;;11.30;76.60
70009;BME280;59542;37.950;-122.338;2023-02-20T04:13:28;101660.44;;;11.31;76.98
70009;BME280;59542;37.950;-122.338;2023-02-20T04:15:55;101667.63;;;11.30;77.16
70009;BME280;59542;37.950;-122.338;2023-02-20T04:18:23;101668.41;;;11.24;77.56
70009;BME280;59542;37.950;-122.338;2023-02-20T04:20:51;101674.38;;;11.26;77.84
70009;BME280;59542;37.950;-122.338;2023-02-20T04:23:18;101670.81;;;11.19;78.30
70009;BME280;59542;37.950;-122.338;2023-02-20T04:25:46;101666.25;;;11.34;78.06
70009;BME280;59542;37.950;-122.338;2023-02-20T04:28:12;101675.81;;;11.22;78.66
70009;BME280;59542;37.950;-122.338;2023-02-20T04:30:39;101682.97;;;11.36;78.29
70009;BME280;59542;37.950;-122.338;2023-02-20T04:33:05;101669.44;;;11.23;79.04
70009;BME280;59542;37.950;-122.338;2023-02-20T04:35:31;101673.19;;;11.29;78.37
70009;BME280;59542;37.950;-122.338;2023-02-20T04:37:57;101681.53;;;11.19;78.64
70009;BME280;59542;37.950;-122.338;2023-02-20T04:40:23;101679.50;;;11.21;78.50
70009;BME280;59542;37.950;-122.338;2023-02-20T04:42:49;101677.69;;;11.07;78.81
70009;BME280;59542;37.950;-122.338;2023-02-20T04:45:15;101671.09;;;11.24;77.67
70009;BME280;59542;37.950;-122.338;2023-02-20T04:47:43;101669.84;;;11.05;78.92
70009;BME280;59542;37.950;-122.338;2023-02-20T04:50:13;101673.53;;;11.04;78.93
70009;BME280;59542;37.950;-122.338;2023-02-20T04:52:41;101685.22;;;10.82;79.51
70009;BME280;59542;37.950;-122.338;2023-02-20T04:55:07;101672.53;;;11.05;78.87
70009;BME280;59542;37.950;-122.338;2023-02-20T04:57:33;101672.56;;;10.91;79.02
70009;BME280;59542;37.950;-122.338;2023-02-20T04:59:59;101675.59;;;10.88;79.24
70009;BME280;59542;37.950;-122.338;2023-02-20T05:02:24;101684.28;;;10.90;78.87
70009;BME280;59542;37.950;-122.338;2023-02-20T05:04:50;101684.09;;;11.06;78.33
70009;BME280;59542;37.950;-122.338;2023-02-20T05:07:16;101680.09;;;11.02;77.85
70009;BME280;59542;37.950;-122.338;2023-02-20T05:09:42;101684.38;;;10.96;77.78
70009;BME280;59542;37.950;-122.338;2023-02-20T05:12:08;101692.69;;;10.87;78.28
70009;BME280;59542;37.950;-122.338;2023-02-20T05:14:34;101692.88;;;11.00;77.89
70009;BME280;59542;37.950;-122.338;2023-02-20T05:17:00;101693.91;;;10.84;78.08
70009;BME280;59542;37.950;-122.338;2023-02-20T05:19:26;101698.94;;;10.94;77.92
70009;BME280;59542;37.950;-122.338;2023-02-20T05:21:52;101700.53;;;10.88;78.45
70009;BME280;59542;37.950;-122.338;2023-02-20T05:24:36;101712.09;;;10.89;78.29
70009;BME280;59542;37.950;-122.338;2023-02-20T05:27:02;101709.38;;;11.03;77.21
70009;BME280;59542;37.950;-122.338;2023-02-20T05:29:28;101713.09;;;11.02;76.42
70009;BME280;59542;37.950;-122.338;2023-02-20T05:31:54;101718.66;;;10.86;76.90
70009;BME280;59542;37.950;-122.338;2023-02-20T05:34:20;101720.84;;;10.82;76.69
70009;BME280;59542;37.950;-122.338;2023-02-20T05:36:47;101734.44;;;10.96;76.03
70009;BME280;59542;37.950;-122.338;2023-02-20T05:39:13;101736.91;;;10.97;76.03
70009;BME280;59542;37.950;-122.338;2023-02-20T05:41:38;101747.34;;;11.07;75.62
70009;BME280;59542;37.950;-122.338;2023-02-20T05:44:04;101745.34;;;10.94;76.15
70009;BME280;59542;37.950;-122.338;2023-02-20T05:46:30;101756.34;;;10.84;76.82
70009;BME280;59542;37.950;-122.338;2023-02-20T05:48:56;101761.31;;;10.88;76.49
70009;BME280;59542;37.950;-122.338;2023-02-20T05:51:23;101768.16;;;10.90;76.69
70009;BME280;59542;37.950;-122.338;2023-02-20T05:53:49;101779.31;;;10.94;77.19
70009;BME280;59542;37.950;-122.338;2023-02-20T05:56:15;101789.50;;;10.83;77.49
70009;BME280;59542;37.950;-122.338;2023-02-20T05:58:41;101786.72;;;10.92;76.84
70009;BME280;59542;37.950;-122.338;2023-02-20T06:01:08;101792.91;;;11.07;76.48
70009;BME280;59542;37.950;-122.338;2023-02-20T06:03:34;101795.50;;;11.00;76.50
70009;BME280;59542;37.950;-122.338;2023-02-20T06:06:00;101795.28;;;10.87;76.91
70009;BME280;59542;37.950;-122.338;2023-02-20T06:08:26;101792.91;;;10.92;77.45
70009;BME280;59542;37.950;-122.338;2023-02-20T06:10:52;101783.69;;;10.95;77.42
70009;BME280;59542;37.950;-122.338;2023-02-20T06:13:17;101779.50;;;11.07;76.73
70009;BME280;59542;37.950;-122.338;2023-02-20T06:15:43;101789.50;;;10.83;77.03
70009;BME280;59542;37.950;-122.338;2023-02-20T06:18:09;101782.56;;;10.74;77.77
70009;BME280;59542;37.950;-122.338;2023-02-20T06:20:35;101787.63;;;10.69;77.90
70009;BME280;59542;37.950;-122.338;2023-02-20T06:23:01;101787.06;;;10.44;78.41
70009;BME280;59542;37.950;-122.338;2023-02-20T06:25:27;101787.88;;;10.60;76.93
70009;BME280;59542;37.950;-122.338;2023-02-20T06:27:52;101776.16;;;10.46;76.70
70009;BME280;59542;37.950;-122.338;2023-02-20T06:30:19;101761.28;;;10.43;75.83
70009;BME280;59542;37.950;-122.338;2023-02-20T06:32:44;101769.91;;;10.68;74.98
70009;BME280;59542;37.950;-122.338;2023-02-20T06:35:10;101767.31;;;10.60;75.83
70009;BME280;59542;37.950;-122.338;2023-02-20T06:37:36;101767.31;;;10.60;76.27
70009;BME280;59542;37.950;-122.338;2023-02-20T06:40:03;101753.28;;;10.73;76.68
70009;BME280;59542;37.950;-122.338;2023-02-20T06:42:29;101763.50;;;10.54;77.26
70009;BME280;59542;37.950;-122.338;2023-02-20T06:44:54;101771.59;;;10.31;78.85
70009;BME280;59542;37.950;-122.338;2023-02-20T06:47:20;101766.56;;;10.51;78.65
70009;BME280;59542;37.950;-122.338;2023-02-20T06:49:46;101774.34;;;10.61;78.30
70009;BME280;59542;37.950;-122.338;2023-02-20T06:52:12;101769.28;;;10.66;78.37
70009;BME280;59542;37.950;-122.338;2023-02-20T06:54:39;101764.81;;;10.58;79.10
70009;BME280;59542;37.950;-122.338;2023-02-20T06:57:05;101769.25;;;10.51;79.63
70009;BME280;59542;37.950;-122.338;2023-02-20T06:59:31;101765.09;;;10.64;79.24
70009;BME280;59542;37.950;-122.338;2023-02-20T07:02:04;101775.78;;;10.49;80.22
70009;BME280;59542;37.950;-122.338;2023-02-20T07:04:30;101789.34;;;10.47;80.63
70009;BME280;59542;37.950;-122.338;2023-02-20T07:06:56;101794.13;;;10.37;81.23
70009;BME280;59542;37.950;-122.338;2023-02-20T07:09:22;101790.84;;;10.65;80.31
70009;BME280;59542;37.950;-122.338;2023-02-20T07:11:50;101791.28;;;10.39;81.66
70009;BME280;59542;37.950;-122.338;2023-02-20T07:14:16;101784.25;;;10.38;81.99
70009;BME280;59542;37.950;-122.338;2023-02-20T07:16:42;101783.41;;;10.37;82.43
70009;BME280;59542;37.950;-122.338;2023-02-20T07:19:08;101781.50;;;10.46;81.84
70009;BME280;59542;37.950;-122.338;2023-02-20T07:21:34;101779.38;;;10.41;82.06
70009;BME280;59542;37.950;-122.338;2023-02-20T07:24:00;101787.03;;;10.21;83.07
70009;BME280;59542;37.950;-122.338;2023-02-20T07:26:27;101782.59;;;10.37;82.47
70009;BME280;59542;37.950;-122.338;2023-02-20T07:28:53;101785.16;;;10.30;82.58
70009;BME280;59542;37.950;-122.338;2023-02-20T07:31:19;101786.41;;;10.19;82.69
70009;BME280;59542;37.950;-122.338;2023-02-20T07:33:45;101770.44;;;10.49;81.34
70009;BME280;59542;37.950;-122.338;2023-02-20T07:36:12;101769.16;;;10.45;81.75
70009;BME280;59542;37.950;-122.338;2023-02-20T07:38:38;101778.06;;;10.14;82.98
70009;BME280;59542;37.950;-122.338;2023-02-20T07:41:04;101769.44;;;10.50;81.18
70009;BME280;59542;37.950;-122.338;2023-02-20T07:43:30;101769.03;;;10.38;81.60
70009;BME280;59542;37.950;-122.338;2023-02-20T07:45:56;101774.03;;;10.41;82.02
70009;BME280;59542;37.950;-122.338;2023-02-20T07:48:22;101767.00;;;10.40;81.33
70009;BME280;59542;37.950;-122.338;2023-02-20T07:50:48;101769.59;;;10.34;81.54
70009;BME280;59542;37.950;-122.338;2023-02-20T07:53:14;101776.84;;;10.25;82.36
70009;BME280;59542;37.950;-122.338;2023-02-20T07:55:40;101775.78;;;10.34;82.03
70009;BME280;59542;37.950;-122.338;2023-02-20T07:58:06;101777.78;;;10.32;81.56
70009;BME280;59542;37.950;-122.338;2023-02-20T08:00:32;101775.19;;;10.01;82.71
70009;BME280;59542;37.950;-122.338;2023-02-20T08:02:57;101773.47;;;9.62;82.57
70009;BME280;59542;37.950;-122.338;2023-02-20T08:05:26;101770.75;;;9.39;81.13
70009;BME280;59542;37.950;-122.338;2023-02-20T08:07:52;101760.09;;;9.31;80.96
70009;BME280;59542;37.950;-122.338;2023-02-20T08:10:23;101759.78;;;9.57;79.35
70009;BME280;59542;37.950;-122.338;2023-02-20T08:12:50;101768.44;;;9.59;79.38
70009;BME280;59542;37.950;-122.338;2023-02-20T08:15:17;101782.81;;;9.66;78.92
70009;BME280;59542;37.950;-122.338;2023-02-20T08:17:43;101790.44;;;9.07;78.93
70009;BME280;59542;37.950;-122.338;2023-02-20T08:20:10;101801.69;;;8.86;79.26
70009;BME280;59542;37.950;-122.338;2023-02-20T08:22:36;101813.97;;;9.04;78.29
70009;BME280;59542;37.950;-122.338;2023-02-20T08:25:02;101814.41;;;9.23;77.24
70009;BME280;59542;37.950;-122.338;2023-02-20T08:27:28;101811.44;;;9.10;76.50
70009;BME280;59542;37.950;-122.338;2023-02-20T08:29:54;101817.78;;;8.45;78.87
70009;BME280;59542;37.950;-122.338;2023-02-20T08:32:20;101817.22;;;8.75;77.84
70009;BME280;59542;37.950;-122.338;2023-02-20T08:34:46;101822.88;;;8.71;77.45
70009;BME280;59542;37.950;-122.338;2023-02-20T08:37:11;101832.03;;;7.79;80.24
70009;BME280;59542;37.950;-122.338;2023-02-20T08:39:37;101830.56;;;8.09;79.39
70009;BME280;59542;37.950;-122.338;2023-02-20T08:42:03;101829.59;;;8.35;77.80
70009;BME280;59542;37.950;-122.338;2023-02-20T08:44:29;101842.28;;;8.41;76.75
70009;BME280;59542;37.950;-122.338;2023-02-20T08:46:55;101847.94;;;8.54;76.36
70009;BME280;59542;37.950;-122.338;2023-02-20T08:49:21;101840.47;;;8.50;75.76
70009;BME280;59542;37.950;-122.338;2023-02-20T08:51:47;101836.91;;;8.33;75.12
70009;BME280;59542;37.950;-122.338;2023-02-20T08:54:14;101845.88;;;7.83;76.91
70009;BME280;59542;37.950;-122.338;2023-02-20T08:56:43;101843.22;;;8.15;75.78
70009;BME280;59542;37.950;-122.338;2023-02-20T08:59:09;101844.91;;;8.25;75.20
70009;BME280;59542;37.950;-122.338;2023-02-20T09:01:35;101835.28;;;8.40;74.17
70009;BME280;59542;37.950;-122.338;2023-02-20T09:04:01;101834.47;;;8.39;74.05
70009;BME280;59542;37.950;-122.338;2023-02-20T09:06:27;101828.28;;;8.39;73.79
70009;BME280;59542;37.950;-122.338;2023-02-20T09:08:54;101838.59;;;8.34;73.23
70009;BME280;59542;37.950;-122.338;2023-02-20T09:11:20;101834.22;;;8.33;73.12
70009;BME280;59542;37.950;-122.338;2023-02-20T09:13:47;101828.91;;;8.08;74.54
70009;BME280;59542;37.950;-122.338;2023-02-20T09:16:14;101839.72;;;8.15;74.45
70009;BME280;59542;37.950;-122.338;2023-02-20T09:18:41;101832.56;;;8.32;73.78
70009;BME280;59542;37.950;-122.338;2023-02-20T09:21:08;101839.56;;;8.00;75.03
70009;BME280;59542;37.950;-122.338;2023-02-20T09:23:35;101839.19;;;7.87;76.41
70009;BME280;59542;37.950;-122.338;2023-02-20T09:26:01;101846.72;;;7.91;76.03
70009;BME280;59542;37.950;-122.338;2023-02-20T09:28:27;101844.34;;;7.72;76.37
70009;BME280;59542;37.950;-122.338;2023-02-20T09:30:53;101855.84;;;7.73;76.75
70009;BME280;59542;37.950;-122.338;2023-02-20T09:33:20;101850.69;;;7.37;77.53
70009;BME280;59542;37.950;-122.338;2023-02-20T09:35:46;101854.53;;;7.34;77.51
70009;BME280;59542;37.950;-122.338;2023-02-20T09:38:14;101849.84;;;7.28;76.74
70009;BME280;59542;37.950;-122.338;2023-02-20T09:40:40;101850.75;;;7.45;75.55
70009;BME280;59542;37.950;-122.338;2023-02-20T09:43:08;101848.75;;;7.47;75.58
70009;BME280;59542;37.950;-122.338;2023-02-20T09:45:44;101849.41;;;7.49;75.52
70009;BME280;59542;37.950;-122.338;2023-02-20T09:48:19;101852.94;;;7.50;74.88
70009;BME280;59542;37.950;-122.338;2023-02-20T09:53:54;101859.53;;;7.37;74.23
70009;BME280;59542;37.950;-122.338;2023-02-20T09:56:25;101858.81;;;7.27;75.13
70009;BME280;59542;37.950;-122.338;2023-02-20T09:58:54;101851.47;;;7.72;73.54
70009;BME280;59542;37.950;-122.338;2023-02-20T10:01:23;101848.22;;;8.02;72.03
70009;BME280;59542;37.950;-122.338;2023-02-20T10:06:19;101844.56;;;7.95;71.44
70009;BME280;59542;37.950;-122.338;2023-02-20T10:08:49;101847.28;;;7.53;72.59
70009;BME280;59542;37.950;-122.338;2023-02-20T10:14:17;101848.28;;;7.60;72.65
70009;BME280;59542;37.950;-122.338;2023-02-20T10:16:54;101850.88;;;7.86;71.28
70009;BME280;59542;37.950;-122.338;2023-02-20T10:19:29;101853.66;;;7.68;71.94
70009;BME280;59542;37.950;-122.338;2023-02-20T10:22:04;101863.53;;;7.92;71.45
70009;BME280;59542;37.950;-122.338;2023-02-20T10:29:45;101847.03;;;7.80;72.46
70009;BME280;59542;37.950;-122.338;2023-02-20T10:32:13;101848.91;;;8.12;70.79
70009;BME280;59542;37.950;-122.338;2023-02-20T10:34:50;101856.94;;;8.29;70.49
70009;BME280;59542;37.950;-122.338;2023-02-20T10:37:19;101858.41;;;8.31;70.24
70009;BME280;59542;37.950;-122.338;2023-02-20T10:39:50;101857.19;;;7.93;70.96
70009;BME280;59542;37.950;-122.338;2023-02-20T10:44:58;101850.75;;;7.45;72.70
70009;BME280;59542;37.950;-122.338;2023-02-20T10:50:02;101863.38;;;7.85;71.36
70009;BME280;59542;37.950;-122.338;2023-02-20T10:52:33;101872.19;;;7.86;70.64
70009;BME280;59542;37.950;-122.338;2023-02-20T10:57:55;101885.50;;;7.78;69.47
70009;BME280;59542;37.950;-122.338;2023-02-20T11:00:26;101881.84;;;7.10;70.93
70009;BME280;59542;37.950;-122.338;2023-02-20T11:03:00;101870.25;;;7.11;71.27
70009;BME280;59542;37.950;-122.338;2023-02-20T11:05:30;101876.47;;;7.28;70.35
70009;BME280;59542;37.950;-122.338;2023-02-20T11:07:58;101881.09;;;7.18;70.70
70009;BME280;59542;37.950;-122.338;2023-02-20T11:10:24;101865.94;;;6.93;71.10
70009;BME280;59542;37.950;-122.338;2023-02-20T11:12:51;101864.72;;;6.79;71.69
70009;BME280;59542;37.950;-122.338;2023-02-20T11:15:19;101861.09;;;6.88;71.25
70009;BME280;59542;37.950;-122.338;2023-02-20T11:17:47;101878.59;;;7.17;69.85
70009;BME280;59542;37.950;-122.338;2023-02-20T11:23:03;101879.59;;;6.90;70.45
70009;BME280;59542;37.950;-122.338;2023-02-20T11:30:39;101875.75;;;6.66;71.88
70009;BME280;59542;37.950;-122.338;2023-02-20T11:33:16;101863.53;;;6.38;72.93
70009;BME280;59542;37.950;-122.338;2023-02-20T11:35:47;101862.81;;;6.27;72.95
70009;BME280;59542;37.950;-122.338;2023-02-20T11:38:15;101860.88;;;6.55;72.41
70009;BME280;59542;37.950;-122.338;2023-02-20T11:40:43;101865.84;;;6.76;71.54
70009;BME280;59542;37.950;-122.338;2023-02-20T11:45:39;101866.47;;;6.96;70.40
70009;BME280;59542;37.950;-122.338;2023-02-20T11:48:12;101859.59;;;6.85;70.65
70009;BME280;59542;37.950;-122.338;2023-02-20T11:50:45;101865.03;;;7.02;70.70
70009;BME280;59542;37.950;-122.338;2023-02-20T11:55:44;101871.06;;;7.12;70.39
70009;BME280;59542;37.950;-122.338;2023-02-20T11:58:19;101874.50;;;7.04;69.93
70009;BME280;59542;37.950;-122.338;2023-02-20T12:00:46;101870.13;;;6.95;70.06
70009;BME280;59542;37.950;-122.338;2023-02-20T12:03:16;101874.00;;;7.01;70.11
70009;BME280;59542;37.950;-122.338;2023-02-20T12:05:43;101872.34;;;7.00;69.85
70009;BME280;59542;37.950;-122.338;2023-02-20T12:10:54;101900.00;;;7.41;68.72
70009;BME280;59542;37.950;-122.338;2023-02-20T12:13:24;101902.13;;;7.03;69.44
70009;BME280;59542;37.950;-122.338;2023-02-20T12:15:51;101897.88;;;6.67;71.03
70009;BME280;59542;37.950;-122.338;2023-02-20T12:24:08;101890.50;;;6.78;70.17
70009;BME280;59542;37.950;-122.338;2023-02-20T12:31:19;101885.63;;;6.74;70.44
70009;BME280;59542;37.950;-122.338;2023-02-20T12:34:11;101882.84;;;6.57;70.81
70009;BME280;59542;37.950;-122.338;2023-02-20T12:39:17;101885.13;;;6.96;69.85
70009;BME280;59542;37.950;-122.338;2023-02-20T12:47:01;101884.94;;;6.72;69.96
70009;BME280;59542;37.950;-122.338;2023-02-20T12:55:04;101881.56;;;6.61;70.64
70009;BME280;59542;37.950;-122.338;2023-02-20T12:57:39;101870.75;;;6.63;70.27
70009;BME280;59542;37.950;-122.338;2023-02-20T13:00:24;101869.28;;;6.69;70.10
70009;BME280;59542;37.950;-122.338;2023-02-20T13:03:01;101867.63;;;6.68;70.17
70009;BME280;59542;37.950;-122.338;2023-02-20T13:05:30;101864.88;;;6.59;71.26
70009;BME280;59542;37.950;-122.338;2023-02-20T13:10:57;101878.47;;;6.74;70.18
70009;BME280;59542;37.950;-122.338;2023-02-20T13:13:31;101882.34;;;6.80;69.60
70009;BME280;59542;37.950;-122.338;2023-02-20T13:16:03;101879.94;;;6.69;70.01
70009;BME280;59542;37.950;-122.338;2023-02-20T13:18:32;101867.91;;;6.65;70.05
70009;BME280;59542;37.950;-122.338;2023-02-20T13:21:00;101866.63;;;6.69;70.18
70009;BME280;59542;37.950;-122.338;2023-02-20T13:23:31;101865.44;;;6.63;70.00
70009;BME280;59542;37.950;-122.338;2023-02-20T13:25:57;101871.81;;;6.52;70.45
70009;BME280;59542;37.950;-122.338;2023-02-20T13:28:39;101882.50;;;6.60;70.32
70009;BME280;59542;37.950;-122.338;2023-02-20T13:52:28;101858.84;;;6.31;70.62
70009;BME280;59542;37.950;-122.338;2023-02-20T13:54:50;101857.22;;;6.56;69.84
70009;BME280;59542;37.950;-122.338;2023-02-20T13:57:17;101872.13;;;6.49;69.54
70009;BME280;59542;37.950;-122.338;2023-02-20T13:59:43;101882.03;;;6.39;69.97
70009;BME280;59542;37.950;-122.338;2023-02-20T14:02:13;101897.50;;;6.26;70.49
70009;BME280;59542;37.950;-122.338;2023-02-20T14:07:43;101902.81;;;6.44;70.45
70009;BME280;59542;37.950;-122.338;2023-02-20T14:10:29;101897.75;;;6.15;71.66
70009;BME280;59542;37.950;-122.338;2023-02-20T14:15:24;101889.31;;;6.01;72.63
70009;BME280;59542;37.950;-122.338;2023-02-20T14:17:50;101882.16;;;6.02;72.81
70009;BME280;59542;37.950;-122.338;2023-02-20T14:23:23;101885.97;;;6.17;72.37
70009;BME280;59542;37.950;-122.338;2023-02-20T14:25:56;101881.69;;;5.89;73.55
70009;BME280;59542;37.950;-122.338;2023-02-20T14:28:23;101878.38;;;5.77;74.43
70009;BME280;59542;37.950;-122.338;2023-02-20T14:33:33;101892.59;;;5.86;73.69